This is the latest recevied weather packets stored in our database for station/object VA7NIC-10. If no packets are shown the sender has not sent any weather packets the latest 1 day(s).
| Time | Temp. | Humidity | Pressure | Rain* | Wind** | Luminosity | Snow |
|---|---|---|---|---|---|---|---|
| 1778086322 | 12.78° C | 83% | 1017.9 hPa | 0 mm | - | - | - |
| 1778081821 | 12.22° C | 85% | 1017.6 hPa | 0 mm | - | - | - |
| 1778078222 | 12.22° C | 85% | 1017.2 hPa | 0 mm | - | - | - |
| 1778077322 | 12.22° C | 85% | 1017.1 hPa | 0 mm | - | - | - |
| 1778076422 | 11.67° C | 85% | 1017.1 hPa | 0 mm | - | - | - |
| 1778075522 | 11.67° C | 85% | 1017 hPa | 0 mm | - | - | - |
| 1778074622 | 11.67° C | 85% | 1016.9 hPa | 0 mm | - | - | - |
| 1778068321 | 11.67° C | 85% | 1016.7 hPa | 0 mm | - | - | - |
| 1778064722 | 11.67° C | 86% | 1016.5 hPa | 0 mm | - | - | - |
| 1778063822 | 11.67° C | 86% | 1016.4 hPa | 0 mm | - | - | - |
| 1778062922 | 11.67° C | 86% | 1016.3 hPa | 0 mm | - | - | - |
| 1778062022 | 11.67° C | 87% | 1016.1 hPa | 0 mm | - | - | - |
| 1778061122 | 11.11° C | 87% | 1015.9 hPa | 0 mm | - | - | - |
| 1778054821 | 11.11° C | 86% | 1015.4 hPa | 0 mm | - | - | - |
| 1778053921 | 11.11° C | 86% | 1015.2 hPa | 0 mm | - | - | - |
| 1778053021 | 11.11° C | 86% | 1015.1 hPa | 0 mm | - | - | - |
| 1778052122 | 11.67° C | 86% | 1015 hPa | 0 mm | - | - | - |
| 1778051222 | 11.67° C | 85% | 1014.9 hPa | 0 mm | - | - | - |
| 1778050322 | 11.67° C | 85% | 1014.7 hPa | 0 mm | - | - | - |
| 1778049422 | 11.67° C | 84% | 1014.7 hPa | 0 mm | - | - | - |
| 1778048522 | 12.22° C | 84% | 1014.6 hPa | 0 mm | - | - | - |
| 1778041321 | 14.44° C | 76% | 1013.5 hPa | 0 mm | - | - | - |
| 1778040421 | 15° C | 75% | 1013.3 hPa | 0 mm | - | - | - |
| 1778039521 | 15° C | 74% | 1013 hPa | 0 mm | - | - | - |
| 1778038622 | 15.56° C | 72% | 1012.9 hPa | 0 mm | - | - | - |
* Rain latest hour (hover to see other rain measurements)
** Current wind speed in m/s (hover to see current wind gust speed)